Time;durP1;ratioP1;P1;durP2;ratioP2;P2;SDS_P1;SDS_P2;PMS_P1;PMS_P2;Temp;Humidity;BMP_temperature;BMP_pressure;BME280_temperature;BME280_humidity;BME280_pressure;Samples;Min_cycle;Max_cycle;Signal;HPM_P1;HPM_P2
2024/01/13 00:02:16;;;;;;;77.43;48.47;;;0.70;49.70;;;;;;20755;6729;307843;-71
2024/01/13 00:04:52;;;;;;;63.30;34.17;;;0.60;50.10;;;;;;20790;6741;118043;-71
2024/01/13 00:07:28;;;;;;;54.20;31.10;;;0.50;50.10;;;;;;20972;6729;117333;-71
2024/01/13 00:10:04;;;;;;;70.87;46.00;;;0.30;51.00;;;;;;20759;6729;278829;-71
2024/01/13 00:12:40;;;;;;;71.07;47.77;;;0.30;51.00;;;;;;20736;6729;303197;-71
2024/01/13 00:15:18;;;;;;;57.57;33.40;;;0.50;50.30;;;;;;20951;6730;117148;-71
2024/01/13 00:17:53;;;;;;;59.40;32.43;;;0.50;50.30;;;;;;20974;6730;119935;-71
2024/01/13 00:20:29;;;;;;;55.43;30.17;;;0.30;50.80;;;;;;20966;6730;117255;-71
2024/01/13 00:23:04;;;;;;;58.00;30.90;;;0.00;51.00;;;;;;20870;6741;119919;-69
2024/01/13 00:25:40;;;;;;;52.87;31.07;;;-0.10;51.40;;;;;;20968;6730;117303;-71
2024/01/13 00:28:16;;;;;;;72.97;46.23;;;-0.10;52.00;;;;;;20757;6730;305680;-71
2024/01/13 00:30:51;;;;;;;57.83;34.40;;;-0.10;52.00;;;;;;20970;6730;117447;-71
2024/01/13 00:33:30;;;;;;;60.17;33.30;;;0.00;51.60;;;;;;20869;6741;117799;-71
2024/01/13 00:36:03;;;;;;;56.63;30.67;;;-0.20;51.70;;;;;;20973;6730;120345;-71
2024/01/13 00:38:39;;;;;;;74.55;45.92;;;-0.30;52.10;;;;;;20665;6756;307816;-70
2024/01/13 00:41:15;;;;;;;82.78;50.00;;;0.20;51.90;;;;;;20682;6756;307653;-70
2024/01/13 00:43:51;;;;;;;59.23;34.60;;;0.20;51.90;;;;;;20843;6743;117940;-70
2024/01/13 00:46:26;;;;;;;78.53;48.00;;;0.20;51.40;;;;;;20767;6729;277187;-70
2024/01/13 00:49:02;;;;;;;75.40;48.70;;;0.50;51.20;;;;;;20742;6729;296502;-70
2024/01/13 00:51:38;;;;;;;65.90;37.40;;;0.50;51.20;;;;;;20976;6728;120699;-70
2024/01/13 00:54:14;;;;;;;56.90;32.93;;;0.50;51.00;;;;;;20809;6728;117960;-70
2024/01/13 00:56:50;;;;;;;74.17;46.73;;;0.30;51.60;;;;;;20763;6728;277105;-70
2024/01/13 00:59:25;;;;;;;80.10;50.13;;;0.30;51.60;;;;;;20741;6728;320164;-71
2024/01/13 01:02:01;;;;;;;76.90;50.17;;;0.50;51.20;;;;;;20699;6728;337891;-70
2024/01/13 01:04:39;;;;;;;64.33;36.87;;;0.70;50.80;;;;;;20766;6728;117556;-71
2024/01/13 01:07:13;;;;;;;84.53;51.70;;;0.60;50.70;;;;;;20738;6728;293775;-72
2024/01/13 01:09:50;;;;;;;75.17;49.43;;;0.80;51.30;;;;;;20742;6728;336952;-72
2024/01/13 01:12:25;;;;;;;76.10;49.93;;;0.80;50.70;;;;;;20754;6728;336009;-72
2024/01/13 01:15:00;;;;;;;58.43;34.80;;;1.00;50.60;;;;;;20773;6785;120211;-72
2024/01/13 01:17:36;;;;;;;74.57;49.00;;;0.90;50.40;;;;;;20765;6728;278534;-72
2024/01/13 01:20:12;;;;;;;62.70;35.00;;;0.80;50.40;;;;;;20970;6728;117322;-71
2024/01/13 01:22:48;;;;;;;61.53;33.83;;;0.40;50.80;;;;;;20943;6728;117250;-71
2024/01/13 01:25:24;;;;;;;60.37;33.40;;;0.40;50.80;;;;;;20953;6728;117261;-72
2024/01/13 01:28:00;;;;;;;59.27;33.57;;;0.00;51.80;;;;;;20975;6729;117282;-71
2024/01/13 01:30:35;;;;;;;74.43;47.80;;;0.00;51.50;;;;;;20720;6729;306178;-71
2024/01/13 01:33:11;;;;;;;68.13;37.70;;;0.10;51.80;;;;;;20870;6729;117526;-69
2024/01/13 01:35:50;;;;;;;79.60;51.27;;;0.20;51.60;;;;;;20747;6729;305108;-74
2024/01/13 01:38:23;;;;;;;65.13;37.57;;;0.30;51.30;;;;;;20975;6729;117778;-73
2024/01/13 01:40:59;;;;;;;79.55;49.38;;;0.30;51.30;;;;;;20732;6729;335262;-71
2024/01/13 01:43:34;;;;;;;82.90;52.83;;;0.40;51.20;;;;;;20654;6729;309986;-70
2024/01/13 01:46:10;;;;;;;81.60;51.00;;;0.60;51.20;;;;;;20758;6729;311364;-71
2024/01/13 01:48:45;;;;;;;70.53;38.67;;;0.90;50.80;;;;;;20972;6729;117155;-71
2024/01/13 01:51:22;;;;;;;75.40;49.30;;;0.80;50.60;;;;;;20721;6728;277605;-70
2024/01/13 01:53:57;;;;;;;71.83;49.77;;;0.90;50.40;;;;;;20610;6729;309803;-70
2024/01/13 01:56:34;;;;;;;68.53;48.03;;;0.90;50.40;;;;;;20760;6729;287444;-71
2024/01/13 01:59:09;;;;;;;61.23;37.90;;;1.10;50.00;;;;;;20949;6729;117299;-69
2024/01/13 02:01:44;;;;;;;56.60;32.30;;;1.00;49.90;;;;;;20968;6729;118712;-70
2024/01/13 02:04:19;;;;;;;63.57;45.20;;;0.60;50.20;;;;;;20586;6728;280575;-71
2024/01/13 02:06:55;;;;;;;58.20;35.00;;;0.60;50.30;;;;;;20949;6728;117544;-70
2024/01/13 02:09:31;;;;;;;62.70;32.80;;;0.60;50.30;;;;;;20970;6728;117849;-71
2024/01/13 02:12:07;;;;;;;66.43;36.00;;;0.10;50.80;;;;;;20971;6728;117230;-70
2024/01/13 02:14:43;;;;;;;56.47;32.00;;;0.10;50.70;;;;;;20758;6728;117567;-70
2024/01/13 02:17:19;;;;;;;67.90;45.57;;;0.00;51.20;;;;;;20743;6728;277382;-70
2024/01/13 02:19:55;;;;;;;74.63;50.73;;;0.00;51.20;;;;;;20757;6728;289493;-70
2024/01/13 02:22:30;;;;;;;69.27;48.03;;;0.30;50.60;;;;;;20745;6728;306270;-71
2024/01/13 02:25:06;;;;;;;68.00;47.47;;;0.60;50.00;;;;;;20744;6646;276691;-78
2024/01/13 02:27:42;;;;;;;72.25;50.33;;;0.80;49.50;;;;;;20710;6743;306753;-78
2024/01/13 02:30:18;;;;;;;55.17;35.33;;;0.80;48.80;;;;;;20926;6743;117035;-76
2024/01/13 02:32:54;;;;;;;71.70;47.62;;;0.80;48.80;;;;;;20653;6743;305474;-77
2024/01/13 02:35:29;;;;;;;69.87;48.38;;;0.70;49.00;;;;;;20743;6743;336473;-79
2024/01/13 02:38:06;;;;;;;77.50;50.15;;;1.00;48.70;;;;;;20690;6744;336371;-76
2024/01/13 02:40:41;;;;;;;66.57;36.80;;;0.90;48.60;;;;;;20901;6743;117684;-77
2024/01/13 02:43:17;;;;;;;68.05;46.90;;;0.80;48.80;;;;;;20586;6743;340988;-77
2024/01/13 02:45:52;;;;;;;68.10;46.63;;;0.80;49.30;;;;;;20683;6743;323273;-77
2024/01/13 02:48:28;;;;;;;67.33;46.97;;;0.90;49.40;;;;;;20773;6724;306474;-77
2024/01/13 02:51:04;;;;;;;69.47;48.43;;;1.20;48.50;;;;;;20680;6746;306458;-77
2024/01/13 02:53:40;;;;;;;56.67;34.97;;;1.20;48.50;;;;;;20858;6724;118673;-77
2024/01/13 02:56:15;;;;;;;56.00;32.33;;;1.00;48.50;;;;;;20926;6743;118128;-78
2024/01/13 02:58:51;;;;;;;67.35;45.78;;;0.60;48.90;;;;;;20716;6744;336584;-78
2024/01/13 03:01:27;;;;;;;54.87;34.67;;;0.60;49.10;;;;;;20900;6747;117187;-78
2024/01/13 03:04:02;;;;;;;56.47;33.37;;;0.40;48.90;;;;;;20827;6724;117472;-77
2024/01/13 03:06:38;;;;;;;72.23;46.60;;;0.20;49.30;;;;;;20759;6724;278635;-78
2024/01/13 03:09:13;;;;;;;61.53;35.33;;;0.20;49.60;;;;;;20954;6724;117127;-77
2024/01/13 03:11:49;;;;;;;73.83;47.90;;;0.10;49.50;;;;;;20762;6724;276616;-78
2024/01/13 03:14:25;;;;;;;65.33;35.57;;;0.20;49.60;;;;;;20739;6745;117597;-77
2024/01/13 03:17:00;;;;;;;60.83;32.33;;;0.10;49.40;;;;;;20994;6723;117276;-77
2024/01/13 03:19:36;;;;;;;70.97;47.87;;;-0.10;49.70;;;;;;20731;6738;304768;-77
2024/01/13 03:22:11;;;;;;;77.97;50.27;;;0.00;50.00;;;;;;20713;6758;308674;-77
2024/01/13 03:24:47;;;;;;;70.53;47.70;;;0.20;49.40;;;;;;20536;6773;308208;-77
2024/01/13 03:27:26;;;;;;;72.03;48.63;;;0.50;49.00;;;;;;20696;6743;307161;-77
2024/01/13 03:30:02;;;;;;;63.37;36.57;;;0.60;48.70;;;;;;20925;6743;118195;-76
2024/01/13 03:32:37;;;;;;;54.47;31.83;;;0.50;48.80;;;;;;20897;6747;118414;-76
2024/01/13 03:35:13;;;;;;;71.70;35.83;;;0.20;49.20;;;;;;20848;6743;118489;-77
2024/01/13 03:37:49;;;;;;;60.73;34.83;;;-0.10;49.60;;;;;;20628;6800;118140;-77
2024/01/13 03:40:24;;;;;;;53.43;31.60;;;-0.30;50.00;;;;;;20943;6743;68104;-76
2024/01/13 03:42:59;;;;;;;61.07;34.13;;;-0.40;50.40;;;;;;20852;6743;118511;-77
2024/01/13 03:45:35;;;;;;;67.80;44.40;;;-0.60;50.70;;;;;;20658;6758;279298;-77
2024/01/13 03:48:10;;;;;;;69.47;48.10;;;-0.40;50.90;;;;;;20602;6788;278852;-77
2024/01/13 03:50:46;;;;;;;72.33;47.77;;;0.00;50.40;;;;;;20671;6744;302786;-77
2024/01/13 03:53:22;;;;;;;60.57;34.27;;;0.20;49.30;;;;;;20828;6757;116768;-77
2024/01/13 03:55:58;;;;;;;65.40;34.83;;;0.20;49.10;;;;;;20916;6768;117275;-76
2024/01/13 03:58:33;;;;;;;53.23;30.97;;;-0.10;49.30;;;;;;20851;6783;115241;-78
2024/01/13 04:01:08;;;;;;;55.77;31.37;;;-0.30;49.80;;;;;;20792;6785;142390;-78
2024/01/13 04:03:45;;;;;;;54.50;28.67;;;-0.40;50.20;;;;;;20824;6770;117371;-78
2024/01/13 04:06:22;;;;;;;66.43;43.67;;;-0.60;50.50;;;;;;20608;6774;278804;-77
2024/01/13 04:08:57;;;;;;;68.57;46.47;;;-0.50;50.40;;;;;;20615;6795;338881;-78
2024/01/13 04:11:32;;;;;;;68.53;47.47;;;-0.10;50.10;;;;;;20724;6750;334614;-77
2024/01/13 04:14:08;;;;;;;69.13;47.87;;;0.20;49.40;;;;;;20628;6750;336202;-79
2024/01/13 04:16:43;;;;;;;60.60;34.77;;;0.40;48.70;;;;;;20966;6750;117904;-78
2024/01/13 04:19:19;;;;;;;51.17;31.07;;;0.30;48.70;;;;;;20963;6744;118936;-75
2024/01/13 04:21:55;;;;;;;64.47;43.20;;;0.00;49.50;;;;;;20714;6744;276856;-79
2024/01/13 04:24:31;;;;;;;65.53;45.50;;;0.00;49.50;;;;;;20509;6750;281507;-77
2024/01/13 04:27:07;;;;;;;70.17;46.30;;;0.50;48.40;;;;;;20625;6768;276565;-78
2024/01/13 04:29:44;;;;;;;69.37;46.23;;;0.50;48.40;;;;;;20627;6772;307292;-77
2024/01/13 04:32:19;;;;;;;56.13;32.87;;;0.70;48.30;;;;;;20886;6757;117171;-78
2024/01/13 04:34:56;;;;;;;58.60;32.10;;;0.50;48.30;;;;;;20668;6821;119465;-80
2024/01/13 04:37:32;;;;;;;66.50;44.20;;;0.20;48.80;;;;;;20668;6759;307214;-78
2024/01/13 04:40:08;;;;;;;55.03;32.03;;;0.20;48.90;;;;;;20916;6750;117150;-78
2024/01/13 04:42:45;;;;;;;64.37;43.70;;;0.10;48.90;;;;;;20637;6765;277790;-78
2024/01/13 04:45:21;;;;;;;67.32;46.05;;;0.50;48.60;;;;;;20586;6773;307427;-77
2024/01/13 04:47:58;;;;;;;58.23;34.73;;;0.40;48.50;;;;;;20831;6773;118261;-77
2024/01/13 04:50:34;;;;;;;53.87;30.63;;;0.00;48.60;;;;;;20819;6778;117567;-77
2024/01/13 04:53:10;;;;;;;70.22;45.15;;;0.00;48.60;;;;;;20537;6773;339846;-77
2024/01/13 04:55:45;;;;;;;71.90;48.20;;;0.00;49.00;;;;;;20647;6765;307273;-77
2024/01/13 04:58:21;;;;;;;58.60;34.23;;;0.30;49.00;;;;;;20861;6760;118949;-77
2024/01/13 05:00:56;;;;;;;61.70;32.97;;;0.20;48.80;;;;;;20857;6759;117675;-77
2024/01/13 05:03:32;;;;;;;56.40;31.70;;;-0.10;49.10;;;;;;20809;6755;118527;-77
2024/01/13 05:06:08;;;;;;;75.97;45.50;;;-0.20;49.90;;;;;;20721;6740;306004;-77
2024/01/13 05:08:44;;;;;;;69.37;45.20;;;-0.30;49.80;;;;;;20670;6755;307036;-78
2024/01/13 05:11:19;;;;;;;69.43;45.63;;;0.00;49.50;;;;;;20642;6755;307447;-76
2024/01/13 05:13:56;;;;;;;61.97;34.20;;;0.30;49.30;;;;;;20808;6755;117615;-77
2024/01/13 05:16:32;;;;;;;67.47;43.53;;;0.20;49.20;;;;;;20718;6740;306635;-77
2024/01/13 05:19:09;;;;;;;70.15;45.28;;;0.20;49.20;;;;;;20690;6740;337016;-77
2024/01/13 05:21:43;;;;;;;61.83;33.40;;;0.40;48.50;;;;;;20933;6740;118348;-78
2024/01/13 05:24:19;;;;;;;53.40;29.83;;;0.20;48.30;;;;;;20752;6755;117555;-80
2024/01/13 05:26:54;;;;;;;68.10;45.03;;;-0.10;48.80;;;;;;20660;6755;277204;-78
2024/01/13 05:29:30;;;;;;;71.87;45.40;;;-0.10;49.30;;;;;;20592;6758;293344;-78
2024/01/13 05:32:15;;;;;;;62.67;33.97;;;0.00;48.90;;;;;;20861;6755;117456;-78
2024/01/13 05:34:43;;;;;;;75.57;46.30;;;0.00;48.90;;;;;;20455;6755;309927;-77
2024/01/13 05:37:19;;;;;;;57.80;32.57;;;-0.10;49.30;;;;;;20906;6739;118908;-79
2024/01/13 05:39:55;;;;;;;68.03;44.08;;;-0.10;49.30;;;;;;20717;6740;334051;-78
2024/01/13 05:42:31;;;;;;;53.77;31.33;;;-0.10;49.50;;;;;;20919;6740;117300;-78
2024/01/13 05:45:07;;;;;;;65.43;42.88;;;-0.10;49.50;;;;;;20672;6755;306102;-78
2024/01/13 05:47:44;;;;;;;71.63;45.27;;;-0.10;49.60;;;;;;20725;6740;278974;-80
2024/01/13 05:50:19;;;;;;;58.80;33.47;;;0.10;48.90;;;;;;20928;6740;117690;-78
2024/01/13 05:52:56;;;;;;;56.00;31.40;;;-0.30;49.30;;;;;;20832;6755;117673;-77
2024/01/13 05:55:31;;;;;;;58.70;30.83;;;-0.20;49.30;;;;;;20877;6755;117679;-77
2024/01/13 05:58:07;;;;;;;73.63;44.40;;;-0.50;49.70;;;;;;20606;6770;307221;-76
2024/01/13 06:00:43;;;;;;;72.50;44.93;;;-0.10;49.90;;;;;;20635;6755;308554;-76
2024/01/13 06:03:19;;;;;;;57.50;33.03;;;-0.10;49.90;;;;;;20799;6759;123584;-77
2024/01/13 06:05:54;;;;;;;56.90;30.53;;;-0.20;49.40;;;;;;20879;6755;117540;-76
2024/01/13 06:08:30;;;;;;;57.67;30.17;;;-0.40;49.90;;;;;;20834;6770;118625;-76
2024/01/13 06:11:07;;;;;;;53.33;29.47;;;-0.60;50.20;;;;;;20902;6740;117643;-75
2024/01/13 06:13:42;;;;;;;65.53;41.23;;;-0.70;50.70;;;;;;20575;6755;312810;-74
2024/01/13 06:16:17;;;;;;;53.60;28.50;;;-0.70;50.70;;;;;;20928;6740;117256;-76
2024/01/13 06:18:53;;;;;;;65.70;42.13;;;-0.70;50.40;;;;;;20718;6740;323271;-77
2024/01/13 06:21:29;;;;;;;57.60;31.80;;;-0.50;50.90;;;;;;20929;6740;117596;-78
2024/01/13 06:24:04;;;;;;;57.83;29.27;;;-0.50;50.60;;;;;;20794;6755;118241;-77
2024/01/13 06:26:40;;;;;;;70.20;42.03;;;-0.60;50.70;;;;;;20670;6755;276603;-76
2024/01/13 06:29:19;;;;;;;71.70;46.37;;;-0.50;50.80;;;;;;20649;6755;276643;-76
2024/01/13 06:31:51;;;;;;;68.10;42.97;;;-0.20;50.70;;;;;;20637;6755;307934;-77
2024/01/13 06:34:27;;;;;;;51.40;29.57;;;0.10;50.00;;;;;;20720;6755;117653;-77
2024/01/13 06:37:02;;;;;;;50.43;26.20;;;0.00;49.70;;;;;;20849;6755;142076;-77
2024/01/13 06:39:38;;;;;;;62.17;39.73;;;-0.20;50.00;;;;;;20692;6755;276844;-78
2024/01/13 06:42:14;;;;;;;61.77;40.57;;;-0.30;50.10;;;;;;20681;6755;307348;-77
2024/01/13 06:44:49;;;;;;;64.80;39.97;;;0.00;49.70;;;;;;20517;6740;309408;-77
2024/01/13 06:47:26;;;;;;;59.17;38.90;;;0.20;49.10;;;;;;20694;6755;277161;-79
2024/01/13 06:50:03;;;;;;;58.22;39.17;;;0.30;48.70;;;;;;20706;6740;334977;-77
2024/01/13 06:52:38;;;;;;;61.10;39.77;;;0.40;48.40;;;;;;20645;6811;288970;-78
2024/01/13 06:55:15;;;;;;;63.03;40.20;;;0.60;48.30;;;;;;20646;6755;320632;-78
2024/01/13 06:57:52;;;;;;;63.45;40.15;;;0.60;48.20;;;;;;20669;6755;336274;-79
2024/01/13 07:00:27;;;;;;;64.87;40.97;;;0.60;48.30;;;;;;20676;6755;284109;-78
2024/01/13 07:03:06;;;;;;;66.33;41.97;;;0.70;47.90;;;;;;20594;6755;280467;-78
2024/01/13 07:05:39;;;;;;;54.37;29.50;;;0.80;47.30;;;;;;20919;6744;117325;-78
2024/01/13 07:08:14;;;;;;;47.50;29.13;;;0.50;47.40;;;;;;20844;6755;117069;-79
2024/01/13 07:10:53;;;;;;;51.23;28.40;;;0.10;48.10;;;;;;20879;6755;69545;-74
2024/01/13 07:13:26;;;;;;;50.77;27.63;;;-0.50;49.20;;;;;;20770;6755;117553;-77
2024/01/13 07:16:03;;;;;;;61.42;40.35;;;-0.50;49.20;;;;;;20710;6740;305732;-76
2024/01/13 07:18:40;;;;;;;62.73;41.67;;;-0.20;48.70;;;;;;20703;6740;276820;-76
2024/01/13 07:21:16;;;;;;;63.73;41.23;;;-0.20;48.70;;;;;;20669;6796;308737;-76
2024/01/13 07:23:53;;;;;;;54.30;31.13;;;0.10;48.10;;;;;;20815;6740;117766;-77
2024/01/13 07:26:29;;;;;;;64.27;40.33;;;0.00;47.90;;;;;;20715;6740;278455;-77
2024/01/13 07:29:05;;;;;;;51.23;32.83;;;0.20;49.10;;;;;;20705;6740;276846;-78
2024/01/13 07:31:40;;;;;;;47.20;32.53;;;0.20;49.30;;;;;;20669;6755;306567;-78
2024/01/13 07:34:16;;;;;;;44.40;27.07;;;0.50;50.60;;;;;;20750;6755;117715;-77
2024/01/13 07:36:53;;;;;;;48.43;34.70;;;0.60;50.50;;;;;;20662;6755;279059;-78
2024/01/13 07:39:29;;;;;;;42.00;27.37;;;0.80;50.30;;;;;;20845;6770;117899;-77
2024/01/13 07:42:04;;;;;;;56.30;35.83;;;0.80;49.80;;;;;;20653;6755;308749;-77
2024/01/13 07:44:45;;;;;;;50.43;27.63;;;0.70;48.20;;;;;;20730;6740;118761;-76
2024/01/13 07:47:21;;;;;;;46.23;26.37;;;0.30;48.10;;;;;;20887;6740;119011;-77
2024/01/13 07:49:56;;;;;;;56.92;36.53;;;0.20;48.50;;;;;;20705;6740;324319;-77
2024/01/13 07:52:32;;;;;;;44.40;26.97;;;0.20;48.50;;;;;;20920;6740;117600;-77
2024/01/13 07:55:08;;;;;;;57.00;38.37;;;0.10;48.70;;;;;;20645;6755;276780;-76
2024/01/13 07:57:43;;;;;;;57.83;32.20;;;0.20;49.30;;;;;;20882;6755;117773;-74
2024/01/13 08:00:20;;;;;;;59.90;37.33;;;0.10;49.40;;;;;;20670;6753;277225;-77
2024/01/13 08:02:56;;;;;;;65.70;39.80;;;0.20;49.10;;;;;;20647;6740;279644;-76
2024/01/13 08:05:31;;;;;;;53.33;28.17;;;0.40;48.50;;;;;;20938;6740;117360;-74
2024/01/13 08:08:07;;;;;;;47.10;27.03;;;0.30;48.40;;;;;;20878;6755;118760;-74
2024/01/13 08:10:42;;;;;;;68.90;41.90;;;-0.10;48.70;;;;;;20672;6755;306056;-77
2024/01/13 08:13:18;;;;;;;72.93;43.40;;;-0.10;49.00;;;;;;20606;6740;306867;-78
2024/01/13 08:15:54;;;;;;;72.23;44.20;;;0.10;49.50;;;;;;20683;6755;277880;-78
2024/01/13 08:18:29;;;;;;;78.30;44.57;;;0.30;48.70;;;;;;20674;6755;308045;-79
2024/01/13 08:21:05;;;;;;;61.97;29.20;;;0.50;48.20;;;;;;20914;6740;117616;-78
2024/01/13 08:23:40;;;;;;;72.73;39.73;;;0.30;48.50;;;;;;20604;6740;310042;-77
2024/01/13 08:26:16;;;;;;;65.77;39.10;;;0.40;50.50;;;;;;20726;6740;306056;-78
2024/01/13 08:28:53;;;;;;;63.40;30.47;;;0.80;51.10;;;;;;20891;6755;117977;-77
2024/01/13 08:31:29;;;;;;;68.62;38.25;;;0.90;51.00;;;;;;20662;6755;277342;-76
2024/01/13 08:34:04;;;;;;;65.82;39.25;;;1.10;51.10;;;;;;20558;6755;307856;-76
2024/01/13 08:36:41;;;;;;;55.27;28.83;;;1.50;49.70;;;;;;20873;6755;117224;-77
2024/01/13 08:39:16;;;;;;;57.60;28.53;;;1.50;49.40;;;;;;20868;6755;117165;-77
2024/01/13 08:41:52;;;;;;;58.60;37.73;;;1.30;49.60;;;;;;20671;6755;306399;-77
2024/01/13 08:44:28;;;;;;;51.27;28.60;;;1.40;49.20;;;;;;20729;6740;117652;-78
2024/01/13 08:47:04;;;;;;;50.33;28.00;;;1.40;49.20;;;;;;20870;6755;118441;-78
2024/01/13 08:49:40;;;;;;;53.67;26.60;;;1.30;49.40;;;;;;20875;6755;118199;-78
2024/01/13 08:52:16;;;;;;;48.83;26.40;;;1.10;49.60;;;;;;20926;6740;117188;-78
2024/01/13 08:54:52;;;;;;;52.10;26.93;;;1.00;49.70;;;;;;20708;6755;118110;-76
2024/01/13 08:57:28;;;;;;;49.50;25.50;;;0.80;49.50;;;;;;20906;6740;117126;-77
2024/01/13 09:00:06;;;;;;;49.40;26.73;;;0.50;49.20;;;;;;20938;6740;117665;-77
2024/01/13 09:02:40;;;;;;;66.10;39.73;;;0.20;49.30;;;;;;20659;6755;305697;-79
2024/01/13 09:05:16;;;;;;;58.10;31.10;;;0.20;49.20;;;;;;20859;6755;117224;-77
2024/01/13 09:07:52;;;;;;;59.03;29.67;;;0.30;49.30;;;;;;20823;6770;118713;-77
2024/01/13 09:10:30;;;;;;;53.00;27.40;;;0.10;49.50;;;;;;20886;6755;117186;-77
2024/01/13 09:13:06;;;;;;;71.60;41.25;;;-0.10;49.70;;;;;;20598;6754;280370;-75
2024/01/13 09:15:41;;;;;;;61.47;32.07;;;0.00;49.50;;;;;;20879;6755;117410;-75
2024/01/13 09:18:20;;;;;;;69.20;40.80;;;0.00;49.20;;;;;;20650;6770;278574;-79
2024/01/13 09:20:56;;;;;;;69.47;42.40;;;0.10;49.20;;;;;;20607;6770;307299;-76
2024/01/13 09:23:31;;;;;;;62.40;31.10;;;0.40;48.90;;;;;;20771;6775;117908;-78
2024/01/13 09:26:07;;;;;;;63.10;35.10;;;0.40;48.80;;;;;;20822;6770;117738;-78
2024/01/13 09:28:46;;;;;;;68.33;40.97;;;0.20;49.50;;;;;;20605;6773;306516;-77
2024/01/13 09:31:20;;;;;;;71.33;44.03;;;0.20;49.40;;;;;;20570;6773;306299;-77
2024/01/13 09:33:56;;;;;;;66.87;41.28;;;0.50;49.30;;;;;;20484;6773;293095;-80
2024/01/13 09:36:32;;;;;;;50.70;26.93;;;0.80;49.10;;;;;;20871;6773;117223;-80
2024/01/13 09:39:11;;;;;;;59.13;39.10;;;0.80;49.00;;;;;;20584;6770;297955;-77
2024/01/13 09:41:47;;;;;;;60.38;38.38;;;0.90;47.50;;;;;;20650;6755;307081;-76
2024/01/13 09:44:23;;;;;;;58.47;32.23;;;0.80;47.70;;;;;;20674;6745;118269;-75
2024/01/13 09:46:59;;;;;;;69.43;43.72;;;0.80;47.70;;;;;;20650;6748;335577;-78
2024/01/13 09:49:34;;;;;;;70.65;46.67;;;0.90;47.60;;;;;;20723;6733;327619;-78
2024/01/13 09:52:10;;;;;;;66.30;44.20;;;1.10;47.30;;;;;;20726;6733;305381;-78
2024/01/13 09:54:45;;;;;;;58.53;32.40;;;1.30;46.60;;;;;;20746;6733;117810;-77
2024/01/13 09:57:21;;;;;;;63.50;39.70;;;1.10;46.70;;;;;;20582;6781;309541;-76
2024/01/13 09:59:57;;;;;;;55.80;31.73;;;1.10;46.80;;;;;;20855;6766;119855;-78
2024/01/13 10:02:32;;;;;;;57.30;28.53;;;1.00;47.00;;;;;;20912;6747;117222;-78
2024/01/13 10:05:09;;;;;;;62.65;38.97;;;0.80;47.40;;;;;;20676;6747;307973;-76
2024/01/13 10:07:45;;;;;;;60.53;30.63;;;0.70;47.20;;;;;;20789;6762;117767;-77
2024/01/13 10:10:21;;;;;;;52.03;28.27;;;0.70;47.20;;;;;;20858;6747;114559;-77
2024/01/13 10:12:56;;;;;;;49.27;25.43;;;0.50;47.60;;;;;;20828;6747;118324;-77
2024/01/13 10:15:36;;;;;;;48.17;26.17;;;0.10;48.30;;;;;;20883;6752;118448;-77
2024/01/13 10:18:12;;;;;;;60.45;38.50;;;0.10;48.30;;;;;;20702;6748;307362;-77
2024/01/13 10:20:48;;;;;;;75.07;44.78;;;0.20;48.30;;;;;;20734;6733;307267;-77
2024/01/13 10:23:25;;;;;;;55.03;32.53;;;0.70;47.70;;;;;;20863;6732;119644;-75
2024/01/13 10:36:44;;;;;;;49.03;29.43;;;1.60;46.30;;;;;;21188;6514;89857;-78
2024/01/13 10:39:10;;;;;;;54.60;37.57;;;1.50;46.20;;;;;;20667;6793;304621;-77
2024/01/13 10:41:35;;;;;;;50.43;30.33;;;1.50;46.60;;;;;;20894;6808;119039;-77
2024/01/13 10:44:07;;;;;;;47.57;27.00;;;1.40;47.30;;;;;;20712;6832;117776;-77
2024/01/13 10:46:30;;;;;;;46.87;28.63;;;1.40;47.30;;;;;;20669;6875;117918;-78
2024/01/13 10:49:01;;;;;;;57.05;38.70;;;1.30;47.70;;;;;;20418;6877;280271;-78
2024/01/13 10:51:31;;;;;;;48.53;29.83;;;1.40;47.50;;;;;;20653;6881;117873;-76
2024/01/13 10:53:58;;;;;;;46.37;27.93;;;1.50;47.40;;;;;;20663;6881;118738;-78
2024/01/13 10:56:23;;;;;;;44.63;27.37;;;1.50;47.70;;;;;;20599;6882;117538;-78
2024/01/13 10:58:49;;;;;;;42.97;25.08;;;1.30;47.90;;;;;;20680;6877;117666;-76
2024/01/13 11:01:16;;;;;;;53.38;35.78;;;1.30;48.10;;;;;;20450;6871;404178;-78
2024/01/13 11:03:41;;;;;;;53.63;30.67;;;1.40;47.60;;;;;;20688;6871;117998;-78
2024/01/13 11:06:07;;;;;;;51.97;35.83;;;1.50;47.50;;;;;;20481;6871;338128;-79
2024/01/13 11:08:32;;;;;;;50.43;30.03;;;1.70;47.00;;;;;;20697;6871;118301;-78
2024/01/13 11:10:58;;;;;;;53.90;36.30;;;1.80;46.90;;;;;;20457;6871;308965;-78
2024/01/13 11:13:31;;;;;;;47.67;27.03;;;1.90;47.40;;;;;;20693;6871;117767;-77
2024/01/13 11:15:56;;;;;;;43.23;25.63;;;1.90;46.70;;;;;;20712;6871;67564;-79
2024/01/13 11:18:23;;;;;;;44.43;24.77;;;1.70;47.30;;;;;;20680;6871;117262;-79
2024/01/13 11:20:58;;;;;;;44.33;23.33;;;1.70;47.30;;;;;;20710;6871;117400;-79
2024/01/13 11:23:24;;;;;;;45.37;32.30;;;1.60;47.50;;;;;;20056;6871;337643;-78
2024/01/13 11:25:49;;;;;;;48.15;35.08;;;1.80;47.30;;;;;;20483;6871;308067;-78
2024/01/13 11:28:15;;;;;;;55.72;39.95;;;2.10;46.30;;;;;;20483;6871;308875;-80
2024/01/13 11:30:41;;;;;;;45.00;29.87;;;2.40;45.60;;;;;;20685;6871;117379;-78
2024/01/13 11:33:13;;;;;;;52.03;37.63;;;2.40;45.60;;;;;;20459;6871;308124;-79
2024/01/13 11:35:38;;;;;;;44.50;27.50;;;2.40;45.30;;;;;;20675;6871;118604;-80
2024/01/13 11:38:07;;;;;;;46.08;33.22;;;2.40;45.50;;;;;;20487;6871;308199;-79
2024/01/13 11:40:33;;;;;;;44.67;27.57;;;2.40;45.40;;;;;;20695;6871;120588;-79
2024/01/13 11:43:01;;;;;;;46.53;32.75;;;2.40;45.60;;;;;;20493;6871;308577;-77
2024/01/13 11:45:36;;;;;;;48.28;34.63;;;2.40;45.20;;;;;;20558;6869;337957;-80
2024/01/13 11:48:31;;;;;;;47.40;32.83;;;2.70;44.70;;;;;;20794;6857;67606;-85
2024/01/13 11:50:57;;;;;;;44.10;27.97;;;2.60;44.80;;;;;;20792;6859;68806;-85
2024/01/13 11:53:34;;;;;;;39.83;25.58;;;2.30;45.40;;;;;;20805;6859;67638;-79
2024/01/13 11:55:58;;;;;;;38.60;25.10;;;2.10;45.90;;;;;;20678;6859;117851;-80
2024/01/13 11:58:24;;;;;;;34.05;22.45;;;2.00;46.40;;;;;;20739;6859;117344;-80
2024/01/13 12:00:49;;;;;;;37.72;20.98;;;1.90;46.70;;;;;;20768;6859;116881;-79
2024/01/13 12:03:15;;;;;;;35.72;21.75;;;1.80;46.90;;;;;;20765;6859;116646;-78
2024/01/13 12:05:42;;;;;;;34.05;20.65;;;1.70;47.00;;;;;;20811;6859;117224;-80
2024/01/13 12:08:07;;;;;;;44.00;30.40;;;1.60;47.30;;;;;;20599;6859;307323;-79
2024/01/13 12:10:42;;;;;;;37.85;25.17;;;1.90;47.00;;;;;;20798;6859;67904;-80
2024/01/13 12:13:17;;;;;;;46.43;31.07;;;1.90;46.90;;;;;;20510;6859;278797;-80
2024/01/13 12:15:48;;;;;;;43.40;32.60;;;2.10;46.50;;;;;;20531;6859;280765;-80
2024/01/13 12:18:10;;;;;;;40.83;31.17;;;2.40;45.50;;;;;;20513;6859;278311;-79
2024/01/13 12:20:35;;;;;;;41.40;30.67;;;2.70;44.80;;;;;;20530;6859;283116;-79
2024/01/13 12:23:02;;;;;;;44.10;32.03;;;2.90;44.10;;;;;;20525;6859;279068;-82
2024/01/13 12:25:28;;;;;;;39.33;25.27;;;3.10;43.70;;;;;;20752;6859;116760;-84
2024/01/13 12:27:53;;;;;;;39.23;22.97;;;2.90;43.90;;;;;;20742;6859;117164;-81
2024/01/13 12:30:19;;;;;;;40.73;28.00;;;2.60;44.60;;;;;;20537;6859;308253;-80
2024/01/13 12:32:44;;;;;;;39.43;27.97;;;2.50;44.60;;;;;;20525;6859;289597;-77
2024/01/13 12:35:10;;;;;;;42.28;30.27;;;2.70;44.20;;;;;;20483;6859;308365;-78
2024/01/13 12:37:36;;;;;;;34.50;22.13;;;2.90;43.90;;;;;;20703;6859;117744;-81
2024/01/13 12:40:05;;;;;;;40.60;28.37;;;2.80;44.10;;;;;;20526;6859;309869;-81
2024/01/13 12:42:29;;;;;;;41.60;29.80;;;2.80;44.30;;;;;;20528;6859;302096;-82
2024/01/13 12:44:56;;;;;;;35.80;22.77;;;3.00;43.70;;;;;;20729;6859;117713;-81
2024/01/13 12:47:24;;;;;;;43.77;26.70;;;2.80;43.90;;;;;;20703;6874;120126;-82
2024/01/13 12:49:49;;;;;;;38.67;22.47;;;2.60;44.60;;;;;;20703;6869;120365;-81
2024/01/13 12:52:16;;;;;;;49.97;33.00;;;2.40;45.90;;;;;;20530;6869;307150;-85
2024/01/13 12:54:42;;;;;;;47.80;30.95;;;2.40;45.30;;;;;;20559;6859;328367;-79
2024/01/13 12:57:07;;;;;;;48.23;33.27;;;2.70;44.80;;;;;;20542;6859;277861;-81
2024/01/13 12:59:33;;;;;;;40.67;29.73;;;2.90;44.20;;;;;;20559;6857;291475;-83
2024/01/13 13:01:58;;;;;;;39.00;29.23;;;3.10;43.90;;;;;;20554;6859;307738;-80
2024/01/13 13:04:26;;;;;;;40.93;28.70;;;3.30;43.40;;;;;;20545;6859;280443;-82
2024/01/13 13:06:53;;;;;;;41.70;30.13;;;3.40;42.90;;;;;;20571;6859;304682;-82
2024/01/13 13:09:19;;;;;;;39.13;29.85;;;3.40;42.70;;;;;;20542;6859;308855;-79
2024/01/13 13:11:44;;;;;;;37.80;24.92;;;3.50;42.60;;;;;;20760;6859;117450;-80